Terminal Aerodrome Forecast
Issued by NWS

Home | Current Version | Previous Version | Text Only | Print | Product List | Glossary On
Versions: 1 2 3 4 5 6 7 8 9 10 11 12 13 14 15 16 17 18 19
000
FTAK31 PAJN 211100
TAFAGY
TAF
PAGY 211125Z 2112/2212 VRB03KT 5SM BR OVC015
     FM211400 VRB04KT P6SM -RA OVC015
     FM211700 VRB05KT 5SM -RA BR FEW006 BKN025 OVC040
     FM220200 21012KT P6SM -RA SCT025 OVC035
     FM220400 21030G45KT P6SM VCSH OVC050
     FM221100 21025G38KT P6SM VCSH OVC050
      AMD LTD TO CLD VIS AND WIND=

USA.gov is the U.S. government's official web portal to all federal, state and local government web resources and services.